sensor_id;sensor_type;location;lat;lon;timestamp;P1;durP1;ratioP1;P2;durP2;ratioP2
10586;SDS011;5341;47.606;7.576;2023-09-30T00:00:31;14.13;;;7.60;;
10586;SDS011;5341;47.606;7.576;2023-09-30T00:02:59;11.90;;;6.88;;
10586;SDS011;5341;47.606;7.576;2023-09-30T00:05:28;13.13;;;7.10;;
10586;SDS011;5341;47.606;7.576;2023-09-30T00:07:55;11.82;;;7.32;;
10586;SDS011;5341;47.606;7.576;2023-09-30T00:10:25;12.20;;;6.82;;
10586;SDS011;5341;47.606;7.576;2023-09-30T00:12:53;11.23;;;7.13;;
10586;SDS011;5341;47.606;7.576;2023-09-30T00:15:21;11.13;;;6.78;;
10586;SDS011;5341;47.606;7.576;2023-09-30T00:17:48;11.32;;;7.10;;
10586;SDS011;5341;47.606;7.576;2023-09-30T00:20:16;11.23;;;6.95;;
10586;SDS011;5341;47.606;7.576;2023-09-30T00:22:43;12.38;;;7.43;;
10586;SDS011;5341;47.606;7.576;2023-09-30T00:25:11;13.18;;;6.85;;
10586;SDS011;5341;47.606;7.576;2023-09-30T00:27:40;10.45;;;6.53;;
10586;SDS011;5341;47.606;7.576;2023-09-30T00:30:08;12.35;;;7.13;;
10586;SDS011;5341;47.606;7.576;2023-09-30T00:32:36;13.80;;;7.82;;
10586;SDS011;5341;47.606;7.576;2023-09-30T00:35:05;14.02;;;7.35;;
10586;SDS011;5341;47.606;7.576;2023-09-30T00:37:36;14.50;;;7.68;;
10586;SDS011;5341;47.606;7.576;2023-09-30T00:40:05;11.48;;;7.00;;
10586;SDS011;5341;47.606;7.576;2023-09-30T00:42:36;12.45;;;7.00;;
10586;SDS011;5341;47.606;7.576;2023-09-30T00:45:06;11.07;;;7.07;;
10586;SDS011;5341;47.606;7.576;2023-09-30T00:47:34;10.48;;;7.10;;
10586;SDS011;5341;47.606;7.576;2023-09-30T00:50:03;11.13;;;6.72;;
10586;SDS011;5341;47.606;7.576;2023-09-30T00:52:34;12.52;;;6.70;;
10586;SDS011;5341;47.606;7.576;2023-09-30T00:55:04;10.43;;;6.75;;
10586;SDS011;5341;47.606;7.576;2023-09-30T00:57:33;11.57;;;6.63;;
10586;SDS011;5341;47.606;7.576;2023-09-30T01:00:02;10.52;;;6.43;;
10586;SDS011;5341;47.606;7.576;2023-09-30T01:02:37;11.85;;;6.80;;
10586;SDS011;5341;47.606;7.576;2023-09-30T01:05:07;10.73;;;6.75;;
10586;SDS011;5341;47.606;7.576;2023-09-30T01:07:35;11.68;;;6.85;;
10586;SDS011;5341;47.606;7.576;2023-09-30T01:10:04;10.38;;;6.38;;
10586;SDS011;5341;47.606;7.576;2023-09-30T01:12:32;11.57;;;6.60;;
10586;SDS011;5341;47.606;7.576;2023-09-30T01:15:01;10.48;;;6.28;;
10586;SDS011;5341;47.606;7.576;2023-09-30T01:17:32;11.23;;;6.45;;
10586;SDS011;5341;47.606;7.576;2023-09-30T01:20:00;12.25;;;6.60;;
10586;SDS011;5341;47.606;7.576;2023-09-30T01:22:32;9.70;;;5.95;;
10586;SDS011;5341;47.606;7.576;2023-09-30T01:25:01;10.45;;;6.28;;
10586;SDS011;5341;47.606;7.576;2023-09-30T01:27:29;13.18;;;7.05;;
10586;SDS011;5341;47.606;7.576;2023-09-30T01:29:57;11.15;;;6.70;;
10586;SDS011;5341;47.606;7.576;2023-09-30T01:32:25;11.82;;;6.05;;
10586;SDS011;5341;47.606;7.576;2023-09-30T01:34:53;9.77;;;6.20;;
10586;SDS011;5341;47.606;7.576;2023-09-30T01:37:21;10.25;;;6.38;;
10586;SDS011;5341;47.606;7.576;2023-09-30T01:39:51;10.05;;;6.18;;
10586;SDS011;5341;47.606;7.576;2023-09-30T01:42:20;11.18;;;6.38;;
10586;SDS011;5341;47.606;7.576;2023-09-30T01:44:48;10.85;;;6.18;;
10586;SDS011;5341;47.606;7.576;2023-09-30T01:47:16;9.65;;;6.32;;
10586;SDS011;5341;47.606;7.576;2023-09-30T01:49:43;9.85;;;6.15;;
10586;SDS011;5341;47.606;7.576;2023-09-30T01:52:11;10.82;;;6.20;;
10586;SDS011;5341;47.606;7.576;2023-09-30T01:54:38;10.27;;;6.55;;
10586;SDS011;5341;47.606;7.576;2023-09-30T01:57:09;10.27;;;6.00;;
10586;SDS011;5341;47.606;7.576;2023-09-30T01:59:36;11.82;;;6.50;;
10586;SDS011;5341;47.606;7.576;2023-09-30T02:02:05;9.05;;;5.70;;
10586;SDS011;5341;47.606;7.576;2023-09-30T02:04:34;10.15;;;6.35;;
10586;SDS011;5341;47.606;7.576;2023-09-30T02:07:01;12.40;;;6.45;;
10586;SDS011;5341;47.606;7.576;2023-09-30T02:09:29;10.18;;;6.30;;
10586;SDS011;5341;47.606;7.576;2023-09-30T02:11:59;9.95;;;5.95;;
10586;SDS011;5341;47.606;7.576;2023-09-30T02:14:29;9.77;;;5.80;;
10586;SDS011;5341;47.606;7.576;2023-09-30T02:16:58;10.23;;;6.05;;
10586;SDS011;5341;47.606;7.576;2023-09-30T02:19:26;10.20;;;5.85;;
10586;SDS011;5341;47.606;7.576;2023-09-30T02:21:57;10.90;;;6.25;;
10586;SDS011;5341;47.606;7.576;2023-09-30T02:24:25;10.85;;;6.65;;
10586;SDS011;5341;47.606;7.576;2023-09-30T02:26:52;10.05;;;6.20;;
10586;SDS011;5341;47.606;7.576;2023-09-30T02:29:22;10.18;;;5.97;;
10586;SDS011;5341;47.606;7.576;2023-09-30T02:31:52;9.50;;;6.15;;
10586;SDS011;5341;47.606;7.576;2023-09-30T02:34:21;9.57;;;5.70;;
10586;SDS011;5341;47.606;7.576;2023-09-30T02:36:49;11.32;;;6.07;;
10586;SDS011;5341;47.606;7.576;2023-09-30T02:39:18;11.23;;;6.57;;
10586;SDS011;5341;47.606;7.576;2023-09-30T02:41:46;11.45;;;6.18;;
10586;SDS011;5341;47.606;7.576;2023-09-30T02:44:17;9.75;;;6.18;;
10586;SDS011;5341;47.606;7.576;2023-09-30T02:46:44;8.80;;;5.68;;
10586;SDS011;5341;47.606;7.576;2023-09-30T02:49:14;8.85;;;5.40;;
10586;SDS011;5341;47.606;7.576;2023-09-30T02:51:42;9.68;;;5.63;;
10586;SDS011;5341;47.606;7.576;2023-09-30T02:54:10;9.45;;;5.68;;
10586;SDS011;5341;47.606;7.576;2023-09-30T02:56:42;10.65;;;6.38;;
10586;SDS011;5341;47.606;7.576;2023-09-30T02:59:11;12.60;;;6.32;;
10586;SDS011;5341;47.606;7.576;2023-09-30T03:01:40;11.32;;;6.75;;
10586;SDS011;5341;47.606;7.576;2023-09-30T03:04:07;10.25;;;6.25;;
10586;SDS011;5341;47.606;7.576;2023-09-30T03:06:39;10.50;;;6.03;;
10586;SDS011;5341;47.606;7.576;2023-09-30T03:09:07;11.98;;;5.47;;
10586;SDS011;5341;47.606;7.576;2023-09-30T03:11:38;9.45;;;5.75;;
10586;SDS011;5341;47.606;7.576;2023-09-30T03:14:06;8.07;;;5.15;;
10586;SDS011;5341;47.606;7.576;2023-09-30T03:16:35;9.95;;;5.90;;
10586;SDS011;5341;47.606;7.576;2023-09-30T03:19:04;8.95;;;5.30;;
10586;SDS011;5341;47.606;7.576;2023-09-30T03:21:34;8.95;;;5.68;;
10586;SDS011;5341;47.606;7.576;2023-09-30T03:24:03;9.70;;;6.22;;
10586;SDS011;5341;47.606;7.576;2023-09-30T03:26:33;9.95;;;5.75;;
10586;SDS011;5341;47.606;7.576;2023-09-30T03:29:01;8.18;;;5.32;;
10586;SDS011;5341;47.606;7.576;2023-09-30T03:31:31;9.95;;;5.88;;
10586;SDS011;5341;47.606;7.576;2023-09-30T03:33:58;9.80;;;5.63;;
10586;SDS011;5341;47.606;7.576;2023-09-30T03:36:26;10.52;;;5.85;;
10586;SDS011;5341;47.606;7.576;2023-09-30T03:38:54;9.63;;;6.00;;
10586;SDS011;5341;47.606;7.576;2023-09-30T03:41:27;10.07;;;5.70;;
10586;SDS011;5341;47.606;7.576;2023-09-30T03:43:55;9.35;;;5.38;;
10586;SDS011;5341;47.606;7.576;2023-09-30T03:46:23;8.15;;;5.53;;
10586;SDS011;5341;47.606;7.576;2023-09-30T03:48:51;10.10;;;5.22;;
10586;SDS011;5341;47.606;7.576;2023-09-30T03:51:21;7.25;;;4.82;;
10586;SDS011;5341;47.606;7.576;2023-09-30T03:53:51;9.90;;;5.57;;
10586;SDS011;5341;47.606;7.576;2023-09-30T03:56:19;8.07;;;5.35;;
10586;SDS011;5341;47.606;7.576;2023-09-30T03:58:50;8.23;;;5.50;;
10586;SDS011;5341;47.606;7.576;2023-09-30T04:01:18;10.27;;;5.53;;
10586;SDS011;5341;47.606;7.576;2023-09-30T04:03:46;10.38;;;5.82;;
10586;SDS011;5341;47.606;7.576;2023-09-30T04:06:13;12.68;;;5.60;;
10586;SDS011;5341;47.606;7.576;2023-09-30T04:08:42;7.78;;;5.07;;
10586;SDS011;5341;47.606;7.576;2023-09-30T04:11:10;9.95;;;5.35;;
10586;SDS011;5341;47.606;7.576;2023-09-30T04:13:43;8.13;;;5.25;;
10586;SDS011;5341;47.606;7.576;2023-09-30T04:16:18;8.32;;;5.32;;
10586;SDS011;5341;47.606;7.576;2023-09-30T04:18:46;11.85;;;5.93;;
10586;SDS011;5341;47.606;7.576;2023-09-30T04:21:15;9.75;;;5.50;;
10586;SDS011;5341;47.606;7.576;2023-09-30T04:23:43;8.77;;;5.32;;
10586;SDS011;5341;47.606;7.576;2023-09-30T04:26:11;8.52;;;5.05;;
10586;SDS011;5341;47.606;7.576;2023-09-30T04:28:39;10.75;;;6.13;;
10586;SDS011;5341;47.606;7.576;2023-09-30T04:31:07;11.02;;;5.70;;
10586;SDS011;5341;47.606;7.576;2023-09-30T04:33:36;10.70;;;5.70;;
10586;SDS011;5341;47.606;7.576;2023-09-30T04:36:05;11.55;;;5.55;;
10586;SDS011;5341;47.606;7.576;2023-09-30T04:38:35;10.05;;;6.07;;
10586;SDS011;5341;47.606;7.576;2023-09-30T04:41:03;8.95;;;5.50;;
10586;SDS011;5341;47.606;7.576;2023-09-30T04:43:33;9.55;;;5.80;;
10586;SDS011;5341;47.606;7.576;2023-09-30T04:46:03;9.43;;;5.53;;
10586;SDS011;5341;47.606;7.576;2023-09-30T04:48:32;10.35;;;6.10;;
10586;SDS011;5341;47.606;7.576;2023-09-30T04:51:05;9.85;;;5.35;;
10586;SDS011;5341;47.606;7.576;2023-09-30T04:53:33;9.90;;;5.68;;
10586;SDS011;5341;47.606;7.576;2023-09-30T04:56:02;9.07;;;5.95;;
10586;SDS011;5341;47.606;7.576;2023-09-30T04:58:30;8.82;;;5.47;;
10586;SDS011;5341;47.606;7.576;2023-09-30T05:00:58;9.00;;;5.63;;
10586;SDS011;5341;47.606;7.576;2023-09-30T05:03:26;9.52;;;5.63;;
10586;SDS011;5341;47.606;7.576;2023-09-30T05:05:53;8.93;;;5.47;;
10586;SDS011;5341;47.606;7.576;2023-09-30T05:08:25;10.82;;;5.65;;
10586;SDS011;5341;47.606;7.576;2023-09-30T05:10:54;10.07;;;5.38;;
10586;SDS011;5341;47.606;7.576;2023-09-30T05:13:23;11.75;;;6.07;;
10586;SDS011;5341;47.606;7.576;2023-09-30T05:15:51;10.30;;;5.45;;
10586;SDS011;5341;47.606;7.576;2023-09-30T05:18:19;9.38;;;5.45;;
10586;SDS011;5341;47.606;7.576;2023-09-30T05:20:47;11.10;;;6.18;;
10586;SDS011;5341;47.606;7.576;2023-09-30T05:23:15;10.75;;;5.80;;
10586;SDS011;5341;47.606;7.576;2023-09-30T05:25:46;8.98;;;5.28;;
10586;SDS011;5341;47.606;7.576;2023-09-30T05:28:13;9.18;;;5.78;;
10586;SDS011;5341;47.606;7.576;2023-09-30T05:30:41;8.57;;;5.40;;
10586;SDS011;5341;47.606;7.576;2023-09-30T05:33:11;9.45;;;5.85;;
10586;SDS011;5341;47.606;7.576;2023-09-30T05:35:39;9.15;;;5.68;;
10586;SDS011;5341;47.606;7.576;2023-09-30T05:38:07;10.35;;;5.60;;
10586;SDS011;5341;47.606;7.576;2023-09-30T05:40:35;9.30;;;5.22;;
10586;SDS011;5341;47.606;7.576;2023-09-30T05:43:05;8.73;;;5.65;;
10586;SDS011;5341;47.606;7.576;2023-09-30T05:45:32;8.10;;;4.82;;
10586;SDS011;5341;47.606;7.576;2023-09-30T05:48:01;10.05;;;5.20;;
10586;SDS011;5341;47.606;7.576;2023-09-30T05:50:31;9.35;;;5.57;;
10586;SDS011;5341;47.606;7.576;2023-09-30T05:53:00;8.40;;;4.82;;
10586;SDS011;5341;47.606;7.576;2023-09-30T05:55:28;7.07;;;4.75;;
10586;SDS011;5341;47.606;7.576;2023-09-30T05:57:56;9.27;;;5.22;;
10586;SDS011;5341;47.606;7.576;2023-09-30T06:00:28;8.27;;;4.72;;
10586;SDS011;5341;47.606;7.576;2023-09-30T06:02:56;7.82;;;4.95;;
10586;SDS011;5341;47.606;7.576;2023-09-30T06:05:24;8.38;;;5.20;;
10586;SDS011;5341;47.606;7.576;2023-09-30T06:07:55;8.90;;;5.40;;
10586;SDS011;5341;47.606;7.576;2023-09-30T06:10:24;9.57;;;5.63;;
10586;SDS011;5341;47.606;7.576;2023-09-30T06:12:52;8.15;;;5.30;;
10586;SDS011;5341;47.606;7.576;2023-09-30T06:15:21;9.43;;;5.53;;
10586;SDS011;5341;47.606;7.576;2023-09-30T06:17:55;9.43;;;5.38;;
10586;SDS011;5341;47.606;7.576;2023-09-30T06:20:23;9.00;;;5.43;;
10586;SDS011;5341;47.606;7.576;2023-09-30T06:22:51;8.55;;;5.15;;
10586;SDS011;5341;47.606;7.576;2023-09-30T06:25:20;6.60;;;4.60;;
10586;SDS011;5341;47.606;7.576;2023-09-30T06:27:49;8.40;;;5.55;;
10586;SDS011;5341;47.606;7.576;2023-09-30T06:30:19;10.35;;;5.72;;
10586;SDS011;5341;47.606;7.576;2023-09-30T06:32:47;8.00;;;5.05;;
10586;SDS011;5341;47.606;7.576;2023-09-30T06:35:16;7.60;;;5.10;;
10586;SDS011;5341;47.606;7.576;2023-09-30T06:37:44;8.43;;;5.28;;
10586;SDS011;5341;47.606;7.576;2023-09-30T06:40:13;9.43;;;5.20;;
10586;SDS011;5341;47.606;7.576;2023-09-30T06:42:40;7.70;;;4.72;;
10586;SDS011;5341;47.606;7.576;2023-09-30T06:45:09;10.30;;;5.25;;
10586;SDS011;5341;47.606;7.576;2023-09-30T06:47:39;9.93;;;5.40;;
10586;SDS011;5341;47.606;7.576;2023-09-30T06:50:08;8.35;;;5.10;;
10586;SDS011;5341;47.606;7.576;2023-09-30T06:52:40;8.00;;;5.22;;
10586;SDS011;5341;47.606;7.576;2023-09-30T06:55:11;10.18;;;5.93;;
10586;SDS011;5341;47.606;7.576;2023-09-30T06:57:42;8.02;;;5.28;;
10586;SDS011;5341;47.606;7.576;2023-09-30T07:00:10;7.45;;;4.88;;
10586;SDS011;5341;47.606;7.576;2023-09-30T07:02:40;9.05;;;5.30;;
10586;SDS011;5341;47.606;7.576;2023-09-30T07:05:08;8.43;;;5.18;;
10586;SDS011;5341;47.606;7.576;2023-09-30T07:07:41;9.35;;;5.63;;
10586;SDS011;5341;47.606;7.576;2023-09-30T07:10:10;9.43;;;5.10;;
10586;SDS011;5341;47.606;7.576;2023-09-30T07:12:38;7.97;;;5.20;;
10586;SDS011;5341;47.606;7.576;2023-09-30T07:15:07;9.98;;;5.25;;
10586;SDS011;5341;47.606;7.576;2023-09-30T07:17:35;8.52;;;4.80;;
10586;SDS011;5341;47.606;7.576;2023-09-30T07:20:03;9.10;;;4.95;;
10586;SDS011;5341;47.606;7.576;2023-09-30T07:22:31;9.15;;;4.75;;
10586;SDS011;5341;47.606;7.576;2023-09-30T07:25:02;8.02;;;4.13;;
10586;SDS011;5341;47.606;7.576;2023-09-30T07:27:31;9.35;;;5.10;;
10586;SDS011;5341;47.606;7.576;2023-09-30T07:29:58;10.98;;;5.43;;
10586;SDS011;5341;47.606;7.576;2023-09-30T07:32:28;9.05;;;4.68;;
10586;SDS011;5341;47.606;7.576;2023-09-30T07:34:57;9.13;;;5.03;;
10586;SDS011;5341;47.606;7.576;2023-09-30T07:37:28;8.43;;;4.60;;
10586;SDS011;5341;47.606;7.576;2023-09-30T07:39:56;9.15;;;4.40;;
10586;SDS011;5341;47.606;7.576;2023-09-30T07:42:25;8.82;;;4.95;;
10586;SDS011;5341;47.606;7.576;2023-09-30T07:44:53;7.50;;;4.10;;
10586;SDS011;5341;47.606;7.576;2023-09-30T07:47:31;7.07;;;4.28;;
10586;SDS011;5341;47.606;7.576;2023-09-30T07:50:00;7.85;;;4.55;;
10586;SDS011;5341;47.606;7.576;2023-09-30T07:52:35;7.65;;;4.90;;
10586;SDS011;5341;47.606;7.576;2023-09-30T07:55:05;9.00;;;4.45;;
10586;SDS011;5341;47.606;7.576;2023-09-30T07:57:36;7.47;;;4.25;;
10586;SDS011;5341;47.606;7.576;2023-09-30T08:00:04;7.10;;;4.30;;
10586;SDS011;5341;47.606;7.576;2023-09-30T08:02:34;8.85;;;4.28;;
10586;SDS011;5341;47.606;7.576;2023-09-30T08:05:03;8.05;;;4.60;;
10586;SDS011;5341;47.606;7.576;2023-09-30T08:07:32;7.53;;;4.32;;
10586;SDS011;5341;47.606;7.576;2023-09-30T08:10:00;8.40;;;4.60;;
10586;SDS011;5341;47.606;7.576;2023-09-30T08:12:30;6.22;;;4.05;;
10586;SDS011;5341;47.606;7.576;2023-09-30T08:15:00;9.02;;;4.03;;
10586;SDS011;5341;47.606;7.576;2023-09-30T08:17:29;6.63;;;4.07;;
10586;SDS011;5341;47.606;7.576;2023-09-30T08:19:56;9.18;;;4.95;;
10586;SDS011;5341;47.606;7.576;2023-09-30T08:22:24;7.78;;;4.15;;
10586;SDS011;5341;47.606;7.576;2023-09-30T08:24:53;6.93;;;4.30;;
10586;SDS011;5341;47.606;7.576;2023-09-30T08:27:21;5.55;;;3.70;;
10586;SDS011;5341;47.606;7.576;2023-09-30T08:29:49;6.20;;;4.28;;
10586;SDS011;5341;47.606;7.576;2023-09-30T08:32:19;6.70;;;4.05;;
10586;SDS011;5341;47.606;7.576;2023-09-30T08:34:48;8.10;;;4.25;;
10586;SDS011;5341;47.606;7.576;2023-09-30T08:37:15;8.30;;;4.05;;
10586;SDS011;5341;47.606;7.576;2023-09-30T08:39:43;7.43;;;4.45;;
10586;SDS011;5341;47.606;7.576;2023-09-30T08:42:10;7.70;;;4.57;;
10586;SDS011;5341;47.606;7.576;2023-09-30T08:44:38;8.85;;;4.65;;
10586;SDS011;5341;47.606;7.576;2023-09-30T08:47:06;10.95;;;4.60;;
10586;SDS011;5341;47.606;7.576;2023-09-30T08:49:38;10.45;;;5.28;;
10586;SDS011;5341;47.606;7.576;2023-09-30T08:52:09;10.40;;;4.63;;
10586;SDS011;5341;47.606;7.576;2023-09-30T08:54:37;9.63;;;4.85;;
10586;SDS011;5341;47.606;7.576;2023-09-30T08:57:05;7.97;;;4.75;;
10586;SDS011;5341;47.606;7.576;2023-09-30T08:59:36;9.77;;;5.20;;
10586;SDS011;5341;47.606;7.576;2023-09-30T09:02:08;8.95;;;4.55;;
10586;SDS011;5341;47.606;7.576;2023-09-30T09:04:39;9.93;;;4.80;;
10586;SDS011;5341;47.606;7.576;2023-09-30T09:07:08;9.20;;;4.50;;
10586;SDS011;5341;47.606;7.576;2023-09-30T09:09:36;8.48;;;4.47;;
10586;SDS011;5341;47.606;7.576;2023-09-30T09:12:04;8.73;;;4.28;;
10586;SDS011;5341;47.606;7.576;2023-09-30T09:14:38;6.93;;;4.30;;
10586;SDS011;5341;47.606;7.576;2023-09-30T09:17:06;9.77;;;4.75;;
10586;SDS011;5341;47.606;7.576;2023-09-30T09:19:35;8.77;;;4.95;;
10586;SDS011;5341;47.606;7.576;2023-09-30T09:22:05;9.43;;;5.20;;
10586;SDS011;5341;47.606;7.576;2023-09-30T09:24:33;8.30;;;4.63;;
10586;SDS011;5341;47.606;7.576;2023-09-30T09:27:05;9.80;;;4.97;;
10586;SDS011;5341;47.606;7.576;2023-09-30T09:29:33;8.93;;;4.07;;
10586;SDS011;5341;47.606;7.576;2023-09-30T09:32:08;9.32;;;4.68;;
10586;SDS011;5341;47.606;7.576;2023-09-30T09:34:37;8.27;;;4.47;;
10586;SDS011;5341;47.606;7.576;2023-09-30T09:37:18;6.32;;;4.18;;
10586;SDS011;5341;47.606;7.576;2023-09-30T09:39:52;5.97;;;3.78;;
10586;SDS011;5341;47.606;7.576;2023-09-30T09:42:25;7.22;;;4.05;;
10586;SDS011;5341;47.606;7.576;2023-09-30T09:44:54;7.68;;;4.45;;
10586;SDS011;5341;47.606;7.576;2023-09-30T09:47:23;8.93;;;4.65;;
10586;SDS011;5341;47.606;7.576;2023-09-30T09:49:52;8.00;;;4.45;;
10586;SDS011;5341;47.606;7.576;2023-09-30T09:52:22;10.90;;;4.35;;
10586;SDS011;5341;47.606;7.576;2023-09-30T09:54:51;6.05;;;3.90;;
10586;SDS011;5341;47.606;7.576;2023-09-30T09:57:18;6.05;;;3.83;;
10586;SDS011;5341;47.606;7.576;2023-09-30T09:59:46;7.93;;;3.92;;
10586;SDS011;5341;47.606;7.576;2023-09-30T10:02:15;7.20;;;4.40;;
10586;SDS011;5341;47.606;7.576;2023-09-30T10:04:44;8.20;;;4.10;;
10586;SDS011;5341;47.606;7.576;2023-09-30T10:07:13;8.30;;;4.40;;
10586;SDS011;5341;47.606;7.576;2023-09-30T10:09:49;7.07;;;4.03;;
10586;SDS011;5341;47.606;7.576;2023-09-30T10:12:19;6.35;;;4.25;;
10586;SDS011;5341;47.606;7.576;2023-09-30T10:14:48;7.38;;;3.65;;
10586;SDS011;5341;47.606;7.576;2023-09-30T10:17:16;7.20;;;4.40;;
10586;SDS011;5341;47.606;7.576;2023-09-30T10:22:33;7.45;;;4.25;;
10586;SDS011;5341;47.606;7.576;2023-09-30T10:25:02;6.60;;;4.30;;
10586;SDS011;5341;47.606;7.576;2023-09-30T10:31:08;8.15;;;4.53;;
10586;SDS011;5341;47.606;7.576;2023-09-30T10:36:40;7.93;;;4.25;;
10586;SDS011;5341;47.606;7.576;2023-09-30T10:39:10;7.20;;;3.80;;
10586;SDS011;5341;47.606;7.576;2023-09-30T10:41:50;5.55;;;3.80;;
10586;SDS011;5341;47.606;7.576;2023-09-30T10:50:03;6.70;;;4.10;;
10586;SDS011;5341;47.606;7.576;2023-09-30T10:52:51;7.47;;;4.65;;
10586;SDS011;5341;47.606;7.576;2023-09-30T10:55:19;9.45;;;4.90;;
10586;SDS011;5341;47.606;7.576;2023-09-30T10:57:52;6.60;;;4.25;;
10586;SDS011;5341;47.606;7.576;2023-09-30T11:00:20;7.13;;;4.38;;
10586;SDS011;5341;47.606;7.576;2023-09-30T11:02:48;8.48;;;4.50;;
10586;SDS011;5341;47.606;7.576;2023-09-30T11:05:17;6.82;;;4.10;;
10586;SDS011;5341;47.606;7.576;2023-09-30T11:07:47;9.27;;;4.32;;
10586;SDS011;5341;47.606;7.576;2023-09-30T11:10:17;7.07;;;4.50;;
10586;SDS011;5341;47.606;7.576;2023-09-30T11:12:56;8.82;;;5.15;;
10586;SDS011;5341;47.606;7.576;2023-09-30T11:15:24;9.90;;;4.40;;
10586;SDS011;5341;47.606;7.576;2023-09-30T11:17:53;7.63;;;4.35;;
10586;SDS011;5341;47.606;7.576;2023-09-30T11:20:21;8.20;;;4.40;;
10586;SDS011;5341;47.606;7.576;2023-09-30T11:22:48;10.32;;;5.15;;
10586;SDS011;5341;47.606;7.576;2023-09-30T11:25:16;8.00;;;5.13;;
10586;SDS011;5341;47.606;7.576;2023-09-30T11:27:45;7.72;;;4.65;;
10586;SDS011;5341;47.606;7.576;2023-09-30T11:30:15;9.27;;;4.72;;
10586;SDS011;5341;47.606;7.576;2023-09-30T11:32:43;7.63;;;4.95;;
10586;SDS011;5341;47.606;7.576;2023-09-30T11:35:21;8.65;;;5.20;;
10586;SDS011;5341;47.606;7.576;2023-09-30T11:37:50;8.20;;;4.97;;
10586;SDS011;5341;47.606;7.576;2023-09-30T11:40:18;8.50;;;4.90;;
10586;SDS011;5341;47.606;7.576;2023-09-30T11:43:07;8.40;;;4.88;;
10586;SDS011;5341;47.606;7.576;2023-09-30T11:45:39;8.38;;;4.47;;
10586;SDS011;5341;47.606;7.576;2023-09-30T11:48:16;7.22;;;4.40;;
10586;SDS011;5341;47.606;7.576;2023-09-30T11:50:46;8.32;;;4.85;;
10586;SDS011;5341;47.606;7.576;2023-09-30T11:53:16;7.03;;;4.80;;
10586;SDS011;5341;47.606;7.576;2023-09-30T11:55:46;10.60;;;5.00;;
10586;SDS011;5341;47.606;7.576;2023-09-30T11:58:14;8.10;;;4.72;;
10586;SDS011;5341;47.606;7.576;2023-09-30T12:00:45;6.25;;;4.03;;
10586;SDS011;5341;47.606;7.576;2023-09-30T12:03:13;7.85;;;4.88;;
10586;SDS011;5341;47.606;7.576;2023-09-30T12:05:41;10.70;;;5.22;;
10586;SDS011;5341;47.606;7.576;2023-09-30T12:08:11;7.85;;;4.95;;
10586;SDS011;5341;47.606;7.576;2023-09-30T12:10:39;9.60;;;4.85;;
10586;SDS011;5341;47.606;7.576;2023-09-30T12:13:07;6.05;;;4.28;;
10586;SDS011;5341;47.606;7.576;2023-09-30T12:15:37;5.75;;;4.43;;
10586;SDS011;5341;47.606;7.576;2023-09-30T12:18:07;9.40;;;4.68;;
10586;SDS011;5341;47.606;7.576;2023-09-30T12:20:35;9.52;;;5.63;;
10586;SDS011;5341;47.606;7.576;2023-09-30T12:23:03;8.00;;;5.05;;
10586;SDS011;5341;47.606;7.576;2023-09-30T12:25:31;8.68;;;5.38;;
10586;SDS011;5341;47.606;7.576;2023-09-30T12:27:58;9.25;;;5.18;;
10586;SDS011;5341;47.606;7.576;2023-09-30T12:30:26;8.27;;;5.32;;
10586;SDS011;5341;47.606;7.576;2023-09-30T12:32:54;8.90;;;5.35;;
10586;SDS011;5341;47.606;7.576;2023-09-30T12:35:23;8.27;;;5.13;;
10586;SDS011;5341;47.606;7.576;2023-09-30T12:37:51;10.48;;;5.32;;
10586;SDS011;5341;47.606;7.576;2023-09-30T12:40:19;9.27;;;5.35;;
10586;SDS011;5341;47.606;7.576;2023-09-30T12:42:47;8.45;;;5.32;;
10586;SDS011;5341;47.606;7.576;2023-09-30T12:45:15;10.05;;;5.60;;
10586;SDS011;5341;47.606;7.576;2023-09-30T12:47:43;9.98;;;5.40;;
10586;SDS011;5341;47.606;7.576;2023-09-30T12:50:12;8.98;;;5.60;;
10586;SDS011;5341;47.606;7.576;2023-09-30T12:52:44;9.55;;;5.95;;
10586;SDS011;5341;47.606;7.576;2023-09-30T12:55:12;8.93;;;5.93;;
10586;SDS011;5341;47.606;7.576;2023-09-30T12:57:40;8.23;;;5.18;;
10586;SDS011;5341;47.606;7.576;2023-09-30T13:00:08;8.55;;;5.60;;
10586;SDS011;5341;47.606;7.576;2023-09-30T13:02:37;8.77;;;5.93;;
10586;SDS011;5341;47.606;7.576;2023-09-30T13:05:04;9.57;;;6.40;;
10586;SDS011;5341;47.606;7.576;2023-09-30T13:07:33;10.27;;;6.43;;
10586;SDS011;5341;47.606;7.576;2023-09-30T13:10:02;9.32;;;6.15;;
10586;SDS011;5341;47.606;7.576;2023-09-30T13:12:30;11.57;;;6.60;;
10586;SDS011;5341;47.606;7.576;2023-09-30T13:14:59;10.13;;;6.75;;
10586;SDS011;5341;47.606;7.576;2023-09-30T13:17:27;9.95;;;5.85;;
10586;SDS011;5341;47.606;7.576;2023-09-30T13:19:54;8.15;;;5.60;;
10586;SDS011;5341;47.606;7.576;2023-09-30T13:22:22;8.38;;;6.03;;
10586;SDS011;5341;47.606;7.576;2023-09-30T13:24:49;11.32;;;6.57;;
10586;SDS011;5341;47.606;7.576;2023-09-30T13:27:19;9.43;;;6.32;;
10586;SDS011;5341;47.606;7.576;2023-09-30T13:29:47;8.63;;;5.72;;
10586;SDS011;5341;47.606;7.576;2023-09-30T13:32:15;11.00;;;5.97;;
10586;SDS011;5341;47.606;7.576;2023-09-30T13:34:45;9.48;;;6.10;;
10586;SDS011;5341;47.606;7.576;2023-09-30T13:37:14;10.57;;;5.95;;
10586;SDS011;5341;47.606;7.576;2023-09-30T13:39:41;8.85;;;6.03;;
10586;SDS011;5341;47.606;7.576;2023-09-30T13:42:09;9.65;;;6.00;;
10586;SDS011;5341;47.606;7.576;2023-09-30T13:44:39;9.68;;;6.47;;
10586;SDS011;5341;47.606;7.576;2023-09-30T13:47:06;10.52;;;6.70;;
10586;SDS011;5341;47.606;7.576;2023-09-30T13:49:35;9.23;;;6.32;;
10586;SDS011;5341;47.606;7.576;2023-09-30T13:52:02;9.15;;;6.50;;
10586;SDS011;5341;47.606;7.576;2023-09-30T13:54:30;9.40;;;6.10;;
10586;SDS011;5341;47.606;7.576;2023-09-30T13:56:58;9.45;;;6.28;;
10586;SDS011;5341;47.606;7.576;2023-09-30T13:59:26;10.55;;;6.20;;
10586;SDS011;5341;47.606;7.576;2023-09-30T14:01:55;8.93;;;5.82;;
10586;SDS011;5341;47.606;7.576;2023-09-30T14:04:23;10.07;;;5.78;;
10586;SDS011;5341;47.606;7.576;2023-09-30T14:06:51;8.85;;;5.90;;
10586;SDS011;5341;47.606;7.576;2023-09-30T14:09:18;8.43;;;5.65;;
10586;SDS011;5341;47.606;7.576;2023-09-30T14:11:46;9.20;;;5.78;;
10586;SDS011;5341;47.606;7.576;2023-09-30T14:14:14;9.35;;;5.88;;
10586;SDS011;5341;47.606;7.576;2023-09-30T14:16:41;8.90;;;6.13;;
10586;SDS011;5341;47.606;7.576;2023-09-30T14:19:11;9.88;;;6.20;;
10586;SDS011;5341;47.606;7.576;2023-09-30T14:21:39;8.68;;;6.15;;
10586;SDS011;5341;47.606;7.576;2023-09-30T14:24:07;7.88;;;5.80;;
10586;SDS011;5341;47.606;7.576;2023-09-30T14:26:36;9.10;;;5.60;;
10586;SDS011;5341;47.606;7.576;2023-09-30T14:29:04;10.93;;;7.00;;
10586;SDS011;5341;47.606;7.576;2023-09-30T14:31:32;9.25;;;6.28;;
10586;SDS011;5341;47.606;7.576;2023-09-30T14:33:59;9.32;;;6.40;;
10586;SDS011;5341;47.606;7.576;2023-09-30T14:36:29;9.88;;;6.20;;
10586;SDS011;5341;47.606;7.576;2023-09-30T14:38:58;10.60;;;6.70;;
10586;SDS011;5341;47.606;7.576;2023-09-30T14:41:25;9.85;;;6.35;;
10586;SDS011;5341;47.606;7.576;2023-09-30T14:43:53;8.85;;;6.30;;
10586;SDS011;5341;47.606;7.576;2023-09-30T14:46:20;9.63;;;6.43;;
10586;SDS011;5341;47.606;7.576;2023-09-30T14:48:48;8.30;;;5.95;;
10586;SDS011;5341;47.606;7.576;2023-09-30T14:51:16;9.80;;;6.50;;
10586;SDS011;5341;47.606;7.576;2023-09-30T14:53:48;9.63;;;7.00;;
10586;SDS011;5341;47.606;7.576;2023-09-30T14:56:16;11.10;;;6.32;;
10586;SDS011;5341;47.606;7.576;2023-09-30T14:58:43;12.98;;;7.25;;
10586;SDS011;5341;47.606;7.576;2023-09-30T15:01:12;10.75;;;6.32;;
10586;SDS011;5341;47.606;7.576;2023-09-30T15:03:39;10.90;;;6.55;;
10586;SDS011;5341;47.606;7.576;2023-09-30T15:06:08;12.20;;;6.82;;
10586;SDS011;5341;47.606;7.576;2023-09-30T15:08:36;10.13;;;6.63;;
10586;SDS011;5341;47.606;7.576;2023-09-30T15:11:11;9.02;;;6.75;;
10586;SDS011;5341;47.606;7.576;2023-09-30T15:13:40;10.60;;;7.25;;
10586;SDS011;5341;47.606;7.576;2023-09-30T15:16:14;10.75;;;7.32;;
10586;SDS011;5341;47.606;7.576;2023-09-30T15:18:43;11.60;;;6.45;;
10586;SDS011;5341;47.606;7.576;2023-09-30T15:21:11;10.20;;;7.13;;
10586;SDS011;5341;47.606;7.576;2023-09-30T15:23:39;12.15;;;8.02;;